createdAt,value
2019-04-11T00:01:10.088Z,60.36
2019-04-11T00:03:39.646Z,60.95
2019-04-11T00:06:08.218Z,60.82
2019-04-11T00:08:37.125Z,60.76
2019-04-11T00:11:06.024Z,61.42
2019-04-11T00:13:36.321Z,61.61
2019-04-11T00:16:04.965Z,62.61
2019-04-11T00:18:34.520Z,62.90
2019-04-11T00:21:03.034Z,63.02
2019-04-11T00:23:32.368Z,63.14
2019-04-11T00:26:02.061Z,63.68
2019-04-11T00:28:30.607Z,63.69
2019-04-11T00:30:59.091Z,63.24
2019-04-11T00:33:27.574Z,63.70
2019-04-11T00:35:56.081Z,63.40
2019-04-11T00:38:25.659Z,63.30
2019-04-11T00:40:54.704Z,63.53
2019-04-11T00:43:31.767Z,64.36
2019-04-11T00:45:54.081Z,64.29
2019-04-11T00:48:23.782Z,64.48
2019-04-11T00:50:52.373Z,64.98
2019-04-11T00:53:20.812Z,64.60
2019-04-11T00:55:49.427Z,64.67
2019-04-11T00:58:17.880Z,64.93
2019-04-11T01:00:47.130Z,65.07
2019-04-11T01:03:15.867Z,64.41
2019-04-11T01:05:45.622Z,65.41
2019-04-11T01:08:15.700Z,65.94
2019-04-11T01:10:45.702Z,66.17
2019-04-11T01:13:15.443Z,65.76
2019-04-11T01:15:46.843Z,66.20
2019-04-11T01:18:16.001Z,66.40
2019-04-11T01:20:44.582Z,65.86
2019-04-11T01:23:13.075Z,66.05
2019-04-11T01:25:41.480Z,66.16
2019-04-11T01:28:10.247Z,66.77
2019-04-11T01:30:55.515Z,66.94
2019-04-11T01:33:24.158Z,67.04
2019-04-11T01:35:53.360Z,68.06
2019-04-11T01:38:23.722Z,68.08
2019-04-11T01:40:52.042Z,67.76
2019-04-11T01:43:20.569Z,68.60
2019-04-11T01:45:49.681Z,69.06
2019-04-11T01:48:23.689Z,69.13
2019-04-11T01:50:53.567Z,69.83
2019-04-11T01:53:22.647Z,70.11
2019-04-11T01:55:51.164Z,69.97
2019-04-11T01:58:19.646Z,70.48
2019-04-11T02:00:56.666Z,70.18
2019-04-11T02:03:33.146Z,70.03
2019-04-11T02:06:01.580Z,70.25
2019-04-11T02:08:30.033Z,70.54
2019-04-11T02:10:59.339Z,70.54
2019-04-11T02:13:28.024Z,70.38
2019-04-11T02:15:58.270Z,70.39
2019-04-11T02:18:27.653Z,70.35
2019-04-11T02:20:56.164Z,71.08
2019-04-11T02:23:43.417Z,70.74
2019-04-11T02:26:13.594Z,70.62
2019-04-11T02:28:42.075Z,70.29
2019-04-11T02:31:12.105Z,71.31
2019-04-11T02:33:41.380Z,70.91
2019-04-11T02:36:12.261Z,70.07
2019-04-11T02:38:41.309Z,69.91
2019-04-11T02:41:11.984Z,69.60
2019-04-11T02:43:42.704Z,69.73
2019-04-11T02:46:22.959Z,69.70
2019-04-11T02:48:42.803Z,69.63
2019-04-11T02:51:12.404Z,70.36
2019-04-11T02:53:42.034Z,70.25
2019-04-11T02:56:11.709Z,69.77
2019-04-11T02:58:40.419Z,69.71
2019-04-11T03:01:10.452Z,69.53
2019-04-11T03:03:42.232Z,69.36
2019-04-11T03:06:11.719Z,69.90
2019-04-11T03:08:41.055Z,69.91
2019-04-11T03:11:10.934Z,69.93
2019-04-11T03:13:39.782Z,70.24
2019-04-11T03:16:25.012Z,70.62
2019-04-11T03:18:55.070Z,70.66
2019-04-11T03:21:14.544Z,70.95
2019-04-11T03:23:40.157Z,70.96
2019-04-11T03:26:12.376Z,71.24
2019-04-11T03:28:46.312Z,70.95
2019-04-11T03:31:50.556Z,70.82
2019-04-11T03:37:06.802Z,71.10
2019-04-11T03:39:05.734Z,71.56
2019-04-11T03:41:29.702Z,72.54
2019-04-11T03:43:57.098Z,72.13
2019-04-11T03:46:33.703Z,72.32
2019-04-11T03:48:55.754Z,72.39
2019-04-11T03:51:18.777Z,72.75
2019-04-11T03:53:47.278Z,72.83
2019-04-11T03:56:18.268Z,72.64
2019-04-11T03:58:48.086Z,72.54
2019-04-11T04:01:18.198Z,73.24
2019-04-11T04:03:48.857Z,73.05
2019-04-11T04:06:18.989Z,73.18
2019-04-11T04:08:48.745Z,73.65
2019-04-11T04:11:22.199Z,73.98
2019-04-11T04:13:59.455Z,73.81
2019-04-11T04:16:36.345Z,73.98
2019-04-11T04:19:20.504Z,74.31
2019-04-11T04:21:55.193Z,74.38
2019-04-11T04:24:28.798Z,75.15
2019-04-11T04:26:59.718Z,75.72
2019-04-11T04:29:29.411Z,76.33
2019-04-11T04:31:59.542Z,76.08
2019-04-11T04:34:28.565Z,76.01
2019-04-11T04:36:57.898Z,75.53
2019-04-11T04:39:27.292Z,75.93
2019-04-11T04:42:05.868Z,76.26
2019-04-11T04:44:30.287Z,76.72
2019-04-11T04:47:15.578Z,77.04
2019-04-11T04:49:32.206Z,76.38
2019-04-11T04:52:01.501Z,76.76
2019-04-11T04:54:30.805Z,76.27
2019-04-11T04:57:00.976Z,76.19
2019-04-11T04:59:30.112Z,76.28
2019-04-11T05:01:59.327Z,76.37
2019-04-11T05:04:29.598Z,76.31
2019-04-11T05:06:59.009Z,75.72
2019-04-11T05:09:27.632Z,76.13
2019-04-11T05:11:56.096Z,76.56
2019-04-11T05:14:25.407Z,76.59
2019-04-11T05:16:54.788Z,76.66
2019-04-11T05:19:23.760Z,76.44
2019-04-11T05:21:52.366Z,76.34
2019-04-11T05:24:20.905Z,76.02
2019-04-11T05:26:50.362Z,75.62
2019-04-11T05:29:19.566Z,75.51
2019-04-11T05:31:49.201Z,74.94
2019-04-11T05:34:18.312Z,75.25
2019-04-11T05:36:47.229Z,74.94
2019-04-11T05:39:17.392Z,74.29
2019-04-11T05:41:47.133Z,74.69
2019-04-11T05:44:16.766Z,75.01
2019-04-11T05:46:52.299Z,75.02
2019-04-11T05:49:17.167Z,73.89
2019-04-11T05:51:47.614Z,73.57
2019-04-11T05:54:16.531Z,72.61
2019-04-11T05:56:48.698Z,74.10
2019-04-11T05:59:18.280Z,73.44
2019-04-11T06:01:52.734Z,73.78
2019-04-11T06:04:25.559Z,73.65
2019-04-11T06:07:13.092Z,73.79
2019-04-11T06:09:44.143Z,72.64
2019-04-11T06:12:14.304Z,72.40
2019-04-11T06:14:44.403Z,73.24
2019-04-11T06:17:15.800Z,72.09
2019-04-11T06:19:45.999Z,71.08
2019-04-11T06:22:14.893Z,70.41
2019-04-11T06:24:48.226Z,70.96
2019-04-11T06:27:22.078Z,71.21
2019-04-11T06:29:59.197Z,71.23
2019-04-11T06:32:45.835Z,70.99
2019-04-11T06:35:32.343Z,72.31
2019-04-11T06:38:08.294Z,72.20
2019-04-11T06:40:38.376Z,71.61
2019-04-11T06:43:11.902Z,71.43
2019-04-11T06:45:46.024Z,70.73
2019-04-11T06:48:23.742Z,70.51
2019-04-11T06:50:57.592Z,70.25
2019-04-11T06:53:28.129Z,70.55
2019-04-11T06:56:14.756Z,69.50
2019-04-11T06:58:45.726Z,68.54
2019-04-11T07:01:16.153Z,67.92
2019-04-11T07:03:53.192Z,68.58
2019-04-11T07:06:23.825Z,67.87
2019-04-11T07:08:54.696Z,67.11
2019-04-11T07:11:41.127Z,66.87
2019-04-11T07:14:12.412Z,66.56
2019-04-11T07:16:42.618Z,66.43
2019-04-11T07:19:24.889Z,65.39
2019-04-11T07:21:54.426Z,64.37
2019-04-11T07:24:24.786Z,64.78
2019-04-11T07:26:55.046Z,65.08
2019-04-11T07:29:27.822Z,64.77
2019-04-11T07:31:58.273Z,64.83
2019-04-11T07:34:45.654Z,63.69
2019-04-11T07:37:32.596Z,64.25
2019-04-11T07:40:13.004Z,64.63
2019-04-11T07:42:53.017Z,63.42
2019-04-11T07:45:26.069Z,61.54
2019-04-11T07:48:11.289Z,60.49
2019-04-11T07:50:40.015Z,59.95
2019-04-11T07:53:10.823Z,59.21
2019-04-11T07:55:40.844Z,57.16
2019-04-11T07:58:23.976Z,56.77
2019-04-11T08:01:10.398Z,56.46
2019-04-11T08:03:49.875Z,56.76
2019-04-11T08:06:34.907Z,56.71
2019-04-11T08:09:22.154Z,57.35
2019-04-11T08:11:52.241Z,58.15
2019-04-11T08:14:24.893Z,60.04
2019-04-11T08:17:11.494Z,59.26
2019-04-11T08:19:44.186Z,58.74
2019-04-11T08:22:30.784Z,58.38
2019-04-11T08:25:17.446Z,57.86
2019-04-11T08:28:00.033Z,55.85
2019-04-11T08:30:41.468Z,55.31
2019-04-11T08:33:10.827Z,53.54
2019-04-11T08:35:54.012Z,52.21
2019-04-11T08:38:28.681Z,50.94
2019-04-11T08:41:17.646Z,51.45
2019-04-11T08:43:46.105Z,50.68
2019-04-11T08:46:25.256Z,50.96
2019-04-11T08:48:55.348Z,50.15
2019-04-11T08:51:27.356Z,51.66
2019-04-11T08:54:14.015Z,51.68
2019-04-11T08:56:43.272Z,51.14
2019-04-11T08:59:24.980Z,51.38
2019-04-11T09:01:53.983Z,50.46
2019-04-11T09:04:41.215Z,50.31
2019-04-11T09:07:10.609Z,49.95
2019-04-11T09:09:45.552Z,49.21
2019-04-11T09:12:14.766Z,48.82
2019-04-11T09:14:48.553Z,47.94
2019-04-11T09:17:21.357Z,47.67
2019-04-11T09:19:55.034Z,46.53
2019-04-11T09:22:26.076Z,43.66
2019-04-11T09:25:11.096Z,44.31
2019-04-11T09:27:51.062Z,43.80
2019-04-11T09:30:30.616Z,43.81
2019-04-11T09:33:04.723Z,45.05
2019-04-11T09:35:37.922Z,45.48
2019-04-11T09:38:10.593Z,44.84
2019-04-11T09:40:43.761Z,43.45
2019-04-11T09:43:16.205Z,43.75
2019-04-11T09:46:01.909Z,41.19
2019-04-11T09:48:34.911Z,41.79
2019-04-11T09:51:17.836Z,41.43
2019-04-11T09:54:06.140Z,39.47
2019-04-11T09:56:37.600Z,39.83
2019-04-11T09:59:12.203Z,38.82
2019-04-11T10:02:00.564Z,38.57
2019-04-11T10:04:31.970Z,38.97
2019-04-11T10:07:21.620Z,40.06
2019-04-11T10:10:05.496Z,40.97
2019-04-11T10:12:52.222Z,41.22
2019-04-11T10:15:23.266Z,42.01
2019-04-11T10:18:20.090Z,41.97
2019-04-11T10:20:40.886Z,42.85
2019-04-11T10:23:12.391Z,43.71
2019-04-11T10:25:41.926Z,43.62
2019-04-11T10:28:13.236Z,43.67
2019-04-11T10:30:44.130Z,43.75
2019-04-11T10:33:15.012Z,42.44
2019-04-11T10:36:01.176Z,41.79
2019-04-11T10:38:30.723Z,41.38
2019-04-11T10:41:00.985Z,41.92
2019-04-11T10:43:32.079Z,42.14
2019-04-11T10:46:02.830Z,43.03
2019-04-11T10:48:39.278Z,42.72
2019-04-11T10:51:17.144Z,42.22
2019-04-11T10:53:47.033Z,41.82
2019-04-11T10:56:18.050Z,41.85
2019-04-11T10:58:49.038Z,41.35
2019-04-11T11:01:19.893Z,42.22
2019-04-11T11:04:03.296Z,42.94
2019-04-11T11:06:33.718Z,42.40
2019-04-11T11:09:19.858Z,42.27
2019-04-11T11:11:53.009Z,41.38
2019-04-11T11:14:29.043Z,41.48
2019-04-11T11:17:02.413Z,41.23
2019-04-11T11:19:59.280Z,40.64
2019-04-11T11:22:36.299Z,39.34
2019-04-11T11:25:24.691Z,39.61
2019-04-11T11:27:53.261Z,40.30
2019-04-11T11:30:39.816Z,42.75
2019-04-11T11:33:09.962Z,43.83
2019-04-11T11:36:00.551Z,44.46
2019-04-11T11:38:30.239Z,45.47
2019-04-11T11:41:16.635Z,44.69
2019-04-11T11:43:45.419Z,44.08
2019-04-11T11:46:31.783Z,42.99
2019-04-11T11:49:02.899Z,43.76
2019-04-11T11:51:42.144Z,44.13
2019-04-11T11:54:21.911Z,44.01
2019-04-11T11:56:50.735Z,43.43
2019-04-11T11:59:20.962Z,43.25
2019-04-11T12:01:54.317Z,44.29
2019-04-11T12:04:40.518Z,44.36
2019-04-11T12:07:10.661Z,45.59
2019-04-11T12:09:58.554Z,47.09
2019-04-11T12:12:46.312Z,47.45
2019-04-11T12:15:35.090Z,48.20
2019-04-11T12:18:11.316Z,48.07
2019-04-11T12:20:47.880Z,48.55
2019-04-11T12:23:27.353Z,48.92
2019-04-11T12:25:55.798Z,48.96
2019-04-11T12:28:42.034Z,48.13
2019-04-11T12:31:11.357Z,46.79
2019-04-11T12:33:41.617Z,47.16
2019-04-11T12:36:12.530Z,46.49
2019-04-11T12:38:55.028Z,45.54
2019-04-11T12:41:25.551Z,47.30
2019-04-11T12:44:04.276Z,45.64
2019-04-11T12:46:50.900Z,45.19
2019-04-11T12:49:23.561Z,44.34
2019-04-11T12:52:10.008Z,45.39
2019-04-11T12:54:51.752Z,43.50
2019-04-11T12:57:38.124Z,44.67
2019-04-11T13:00:21.195Z,44.19
2019-04-11T13:03:00.488Z,44.34
2019-04-11T13:05:31.924Z,44.74
2019-04-11T13:08:02.055Z,44.61
2019-04-11T13:10:30.605Z,42.68
2019-04-11T13:13:16.688Z,43.92
2019-04-11T13:15:46.876Z,43.52
2019-04-11T13:18:16.999Z,43.89
2019-04-11T13:20:47.100Z,43.37
2019-04-11T13:23:19.862Z,43.58
2019-04-11T13:26:01.984Z,44.59
2019-04-11T13:28:31.705Z,45.00
2019-04-11T13:31:18.488Z,44.96
2019-04-11T13:33:46.946Z,44.99
2019-04-11T13:36:33.230Z,44.59
2019-04-11T13:39:03.457Z,44.02
2019-04-11T13:41:33.545Z,44.48
2019-04-11T13:44:03.690Z,44.02
2019-04-11T13:46:36.749Z,44.28
2019-04-11T13:49:21.585Z,45.10
2019-04-11T13:52:00.790Z,45.03
2019-04-11T13:54:42.979Z,44.72
2019-04-11T13:57:28.327Z,45.39
2019-04-11T14:00:15.154Z,44.80
2019-04-11T14:02:57.588Z,45.35
2019-04-11T14:05:27.686Z,46.31
2019-04-11T14:07:57.084Z,46.65
2019-04-11T14:10:25.749Z,46.57
2019-04-11T14:12:57.815Z,46.62
2019-04-11T14:15:29.660Z,46.16
2019-04-11T14:18:15.660Z,46.28
2019-04-11T14:20:48.695Z,46.01
2019-04-11T14:23:24.901Z,46.04
2019-04-11T14:26:01.248Z,46.67
2019-04-11T14:28:31.975Z,45.52
2019-04-11T14:31:14.470Z,45.87
2019-04-11T14:33:50.812Z,45.49
2019-04-11T14:36:37.344Z,45.99
2019-04-11T14:39:08.888Z,46.03
2019-04-11T14:41:59.662Z,47.15
2019-04-11T14:44:28.925Z,47.03
2019-04-11T14:47:06.792Z,47.79
2019-04-11T14:49:35.426Z,47.66
2019-04-11T14:52:22.194Z,48.08
2019-04-11T14:54:50.670Z,48.70
2019-04-11T14:57:35.897Z,49.38
2019-04-11T15:00:09.089Z,49.33
2019-04-11T15:02:39.219Z,50.10
2019-04-11T15:05:15.372Z,49.83
2019-04-11T15:07:46.140Z,49.91
2019-04-11T15:10:32.467Z,50.04
2019-04-11T15:13:01.008Z,50.19
2019-04-11T15:15:31.100Z,50.33
2019-04-11T15:18:01.349Z,50.35
2019-04-11T15:20:34.815Z,50.21
2019-04-11T15:23:16.907Z,50.36
2019-04-11T15:26:02.913Z,50.76
2019-04-11T15:28:43.644Z,50.32
2019-04-11T15:31:38.726Z,49.92
2019-04-11T15:34:03.861Z,50.57
2019-04-11T15:36:32.324Z,51.57
2019-04-11T15:39:02.484Z,52.12
2019-04-11T15:41:32.131Z,53.76
2019-04-11T15:44:14.611Z,53.77
2019-04-11T15:46:43.275Z,53.66
2019-04-11T15:49:20.485Z,54.38
2019-04-11T15:51:44.911Z,54.16
2019-04-11T15:54:15.000Z,53.28
2019-04-11T15:56:48.575Z,54.13
2019-04-11T15:59:18.719Z,54.83
2019-04-11T16:01:57.588Z,55.08
2019-04-11T16:04:30.193Z,54.99
2019-04-11T16:07:12.884Z,55.64
2019-04-11T16:09:50.422Z,56.44
2019-04-11T16:12:26.186Z,57.15
2019-04-11T16:15:14.326Z,57.43
2019-04-11T16:18:00.483Z,57.19
2019-04-11T16:20:28.912Z,56.49
2019-04-11T16:23:11.009Z,56.32
2019-04-11T16:25:39.732Z,56.74
2019-04-11T16:28:21.661Z,56.33
2019-04-11T16:30:51.787Z,55.50
2019-04-11T16:33:38.047Z,55.42
2019-04-11T16:36:08.151Z,56.08
2019-04-11T16:38:50.456Z,56.48
2019-04-11T16:41:29.989Z,55.96
2019-04-11T16:44:00.083Z,56.01
2019-04-11T16:46:46.449Z,56.05
2019-04-11T16:49:14.935Z,56.00
2019-04-11T16:51:43.394Z,56.46
2019-04-11T16:54:11.831Z,56.84
2019-04-11T16:56:41.690Z,56.98
2019-04-11T16:59:10.473Z,57.25
2019-04-11T17:01:38.932Z,57.14
2019-04-11T17:04:07.396Z,56.53
2019-04-11T17:06:55.539Z,57.19
2019-04-11T17:09:31.483Z,57.36
2019-04-11T17:11:59.986Z,57.19
2019-04-11T17:14:32.849Z,57.74
2019-04-11T17:17:00.658Z,58.13
2019-04-11T17:19:28.790Z,58.16
2019-04-11T17:21:57.247Z,57.90
2019-04-11T17:24:25.692Z,58.08
2019-04-11T17:26:54.116Z,57.58
2019-04-11T17:29:24.709Z,57.07
2019-04-11T17:31:55.600Z,56.62
2019-04-11T17:34:23.015Z,56.95
2019-04-11T17:36:51.476Z,56.63
2019-04-11T17:39:19.922Z,57.30
2019-04-11T17:41:48.359Z,57.59
2019-04-11T17:44:16.882Z,57.83
2019-04-11T17:46:45.319Z,59.49
2019-04-11T17:49:13.793Z,61.80
2019-04-11T17:51:42.847Z,62.94
2019-04-11T17:54:12.497Z,63.56
2019-04-11T17:56:40.957Z,63.79
2019-04-11T17:59:12.050Z,64.44
2019-04-11T18:01:39.604Z,65.29
2019-04-11T18:04:08.878Z,65.22
2019-04-11T18:06:37.375Z,65.76
2019-04-11T18:09:10.088Z,66.15
2019-04-11T18:11:38.546Z,66.53
2019-04-11T18:14:07.006Z,66.25
2019-04-11T18:16:35.452Z,66.41
2019-04-11T18:19:06.061Z,66.88
2019-04-11T18:21:34.878Z,67.44
2019-04-11T18:24:05.177Z,66.89
2019-04-11T18:26:33.857Z,66.67
2019-04-11T18:29:02.440Z,66.74
2019-04-11T18:31:30.850Z,66.26
2019-04-11T18:34:01.622Z,66.44
2019-04-11T18:36:31.806Z,66.13
2019-04-11T18:39:02.079Z,65.04
2019-04-11T18:41:29.900Z,65.39
2019-04-11T18:43:58.345Z,65.32
2019-04-11T18:46:26.837Z,65.73
2019-04-11T18:48:55.450Z,65.98
2019-04-11T18:51:23.912Z,65.73
2019-04-11T18:53:52.426Z,65.93
2019-04-11T18:56:20.898Z,65.68
2019-04-11T18:58:49.300Z,65.60
2019-04-11T19:01:18.767Z,66.16
2019-04-11T19:03:47.205Z,66.33
2019-04-11T19:06:27.248Z,65.94
2019-04-11T19:08:45.865Z,66.12
2019-04-11T19:11:15.756Z,65.81
2019-04-11T19:13:46.737Z,65.23
2019-04-11T19:16:16.140Z,65.46
2019-04-11T19:18:47.710Z,65.74
2019-04-11T19:21:15.082Z,66.15
2019-04-11T19:23:43.559Z,65.79
2019-04-11T19:26:14.543Z,66.41
2019-04-11T19:28:42.203Z,66.43
2019-04-11T19:31:12.300Z,66.21
2019-04-11T19:33:40.962Z,66.41
2019-04-11T19:36:10.026Z,66.37
2019-04-11T19:38:43.029Z,65.91
2019-04-11T19:41:09.809Z,65.94
2019-04-11T19:43:40.646Z,65.96
2019-04-11T19:46:08.395Z,65.92
2019-04-11T19:48:36.864Z,66.46
2019-04-11T19:51:05.302Z,66.44
2019-04-11T19:53:33.808Z,67.50
2019-04-11T19:56:05.393Z,67.43
2019-04-11T19:58:34.066Z,67.50
2019-04-11T20:01:02.489Z,67.35
2019-04-11T20:03:31.842Z,67.28
2019-04-11T20:06:00.403Z,67.52
2019-04-11T20:08:28.840Z,67.70
2019-04-11T20:11:01.072Z,66.94
2019-04-11T20:13:27.486Z,67.17
2019-04-11T20:15:55.910Z,67.05
2019-04-11T20:18:24.396Z,66.80
2019-04-11T20:20:52.841Z,66.74
2019-04-11T20:23:21.309Z,66.91
2019-04-11T20:25:50.115Z,67.07
2019-04-11T20:28:19.911Z,67.11
2019-04-11T20:30:48.784Z,66.90
2019-04-11T20:33:26.569Z,66.89
2019-04-11T20:35:47.402Z,67.47
2019-04-11T20:38:16.682Z,67.27
2019-04-11T20:40:45.201Z,67.01
2019-04-11T20:43:13.639Z,66.89
2019-04-11T20:45:43.206Z,67.08
2019-04-11T20:48:11.664Z,66.83
2019-04-11T20:50:40.138Z,66.92
2019-04-11T20:53:12.845Z,67.15
2019-04-11T20:55:39.369Z,66.67
2019-04-11T20:58:10.410Z,66.96
2019-04-11T21:00:49.679Z,67.30
2019-04-11T21:03:08.929Z,66.92
2019-04-11T21:05:40.393Z,66.86
2019-04-11T21:08:08.819Z,66.94
2019-04-11T21:10:37.291Z,67.39
2019-04-11T21:13:07.227Z,67.33
2019-04-11T21:15:35.901Z,67.40
2019-04-11T21:18:04.525Z,67.83
2019-04-11T21:20:33.153Z,67.59
2019-04-11T21:23:01.584Z,68.22
2019-04-11T21:25:30.318Z,67.63
2019-04-11T21:27:59.145Z,67.79
2019-04-11T21:30:30.510Z,67.24
2019-04-11T21:32:58.481Z,67.40
2019-04-11T21:35:26.947Z,67.19
2019-04-11T21:37:55.393Z,67.36
2019-04-11T21:40:23.849Z,67.40
2019-04-11T21:42:52.299Z,67.24
2019-04-11T21:45:20.754Z,67.04
2019-04-11T21:47:49.209Z,66.26
2019-04-11T21:50:17.691Z,66.48
2019-04-11T21:52:46.191Z,66.17
2019-04-11T21:55:15.990Z,66.21
2019-04-11T21:57:48.475Z,66.50
2019-04-11T22:00:22.156Z,66.90
2019-04-11T22:02:48.195Z,66.30
2019-04-11T22:05:16.925Z,66.39
2019-04-11T22:07:45.362Z,66.42
2019-04-11T22:10:14.351Z,66.71
2019-04-11T22:12:42.865Z,66.42
2019-04-11T22:15:12.485Z,66.48
2019-04-11T22:17:42.955Z,66.98
2019-04-11T22:20:11.178Z,67.15
2019-04-11T22:22:39.607Z,67.85
2019-04-11T22:25:08.440Z,68.01
2019-04-11T22:27:36.871Z,68.16
2019-04-11T22:30:08.843Z,68.00
2019-04-11T22:32:37.315Z,68.24
2019-04-11T22:35:06.520Z,68.48
2019-04-11T22:37:34.952Z,68.62
2019-04-11T22:40:04.971Z,68.35
2019-04-11T22:42:33.453Z,68.29
2019-04-11T22:45:01.865Z,68.50
2019-04-11T22:47:30.337Z,68.63
2019-04-11T22:49:58.810Z,68.80
2019-04-11T22:52:27.240Z,69.08
2019-04-11T22:54:55.702Z,69.91
2019-04-11T22:57:24.181Z,70.02
2019-04-11T22:59:52.617Z,70.71
2019-04-11T23:02:28.760Z,70.37
2019-04-11T23:04:57.183Z,70.34
2019-04-11T23:07:25.665Z,70.91
2019-04-11T23:09:54.095Z,70.42
2019-04-11T23:12:22.563Z,70.90
2019-04-11T23:14:51.071Z,71.05
2019-04-11T23:17:19.498Z,70.81
2019-04-11T23:19:47.957Z,70.75
2019-04-11T23:22:16.443Z,71.29
2019-04-11T23:24:44.915Z,71.16
2019-04-11T23:27:13.395Z,71.92
2019-04-11T23:29:41.860Z,72.39
2019-04-11T23:32:10.324Z,71.71
2019-04-11T23:34:38.789Z,71.64
2019-04-11T23:37:07.224Z,71.77
2019-04-11T23:39:35.701Z,72.65
2019-04-11T23:42:04.166Z,72.76
2019-04-11T23:44:32.608Z,72.46
2019-04-11T23:47:01.074Z,72.31
2019-04-11T23:49:29.523Z,73.03
2019-04-11T23:51:57.956Z,73.20
2019-04-11T23:54:28.945Z,73.57
2019-04-11T23:57:00.543Z,73.78
2019-04-11T23:59:31.767Z,73.88
